sensor_id;sensor_type;location;lat;lon;timestamp;P1;durP1;ratioP1;P2;durP2;ratioP2
19251;SDS011;9760;50.944;5.304;2022-10-17T00:01:02;17.67;;;8.70;;
19251;SDS011;9760;50.944;5.304;2022-10-17T00:03:28;17.67;;;10.17;;
19251;SDS011;9760;50.944;5.304;2022-10-17T00:05:53;24.80;;;10.57;;
19251;SDS011;9760;50.944;5.304;2022-10-17T00:08:19;16.67;;;9.17;;
19251;SDS011;9760;50.944;5.304;2022-10-17T00:10:45;18.30;;;10.80;;
19251;SDS011;9760;50.944;5.304;2022-10-17T00:13:23;21.97;;;11.40;;
19251;SDS011;9760;50.944;5.304;2022-10-17T00:15:50;25.00;;;11.83;;
19251;SDS011;9760;50.944;5.304;2022-10-17T00:18:16;23.50;;;11.33;;
19251;SDS011;9760;50.944;5.304;2022-10-17T00:20:42;20.23;;;10.07;;
19251;SDS011;9760;50.944;5.304;2022-10-17T00:23:07;19.37;;;10.13;;
19251;SDS011;9760;50.944;5.304;2022-10-17T00:25:33;17.87;;;10.50;;
19251;SDS011;9760;50.944;5.304;2022-10-17T00:27:59;23.03;;;10.77;;
19251;SDS011;9760;50.944;5.304;2022-10-17T00:30:24;22.93;;;11.27;;
19251;SDS011;9760;50.944;5.304;2022-10-17T00:32:50;17.87;;;11.37;;
19251;SDS011;9760;50.944;5.304;2022-10-17T00:35:15;19.10;;;11.30;;
19251;SDS011;9760;50.944;5.304;2022-10-17T00:37:41;23.33;;;10.80;;
19251;SDS011;9760;50.944;5.304;2022-10-17T00:40:07;19.73;;;10.03;;
19251;SDS011;9760;50.944;5.304;2022-10-17T00:42:33;18.33;;;9.40;;
19251;SDS011;9760;50.944;5.304;2022-10-17T00:45:09;20.33;;;9.93;;
19251;SDS011;9760;50.944;5.304;2022-10-17T00:47:42;16.57;;;10.17;;
19251;SDS011;9760;50.944;5.304;2022-10-17T00:50:11;15.07;;;9.67;;
19251;SDS011;9760;50.944;5.304;2022-10-17T00:52:37;16.80;;;10.33;;
19251;SDS011;9760;50.944;5.304;2022-10-17T00:55:15;18.17;;;10.10;;
19251;SDS011;9760;50.944;5.304;2022-10-17T00:57:55;20.13;;;10.73;;
19251;SDS011;9760;50.944;5.304;2022-10-17T01:00:23;22.20;;;10.47;;
19251;SDS011;9760;50.944;5.304;2022-10-17T01:02:49;25.23;;;11.20;;
19251;SDS011;9760;50.944;5.304;2022-10-17T01:05:15;19.87;;;11.53;;
19251;SDS011;9760;50.944;5.304;2022-10-17T01:07:42;19.33;;;11.03;;
19251;SDS011;9760;50.944;5.304;2022-10-17T01:10:10;19.60;;;11.50;;
19251;SDS011;9760;50.944;5.304;2022-10-17T01:31:36;17.13;;;9.80;;
19251;SDS011;9760;50.944;5.304;2022-10-17T01:34:30;19.50;;;10.93;;
19251;SDS011;9760;50.944;5.304;2022-10-17T01:37:05;20.37;;;10.30;;
19251;SDS011;9760;50.944;5.304;2022-10-17T01:39:46;20.63;;;10.27;;
19251;SDS011;9760;50.944;5.304;2022-10-17T01:47:40;18.77;;;11.00;;
19251;SDS011;9760;50.944;5.304;2022-10-17T01:50:11;19.87;;;9.80;;
19251;SDS011;9760;50.944;5.304;2022-10-17T01:52:42;15.23;;;9.90;;
19251;SDS011;9760;50.944;5.304;2022-10-17T01:55:13;21.87;;;10.77;;
19251;SDS011;9760;50.944;5.304;2022-10-17T01:57:48;15.27;;;9.63;;
19251;SDS011;9760;50.944;5.304;2022-10-17T02:00:18;18.63;;;9.93;;
19251;SDS011;9760;50.944;5.304;2022-10-17T02:02:49;16.83;;;9.27;;
19251;SDS011;9760;50.944;5.304;2022-10-17T02:05:19;17.70;;;10.00;;
19251;SDS011;9760;50.944;5.304;2022-10-17T02:07:48;17.57;;;9.30;;
19251;SDS011;9760;50.944;5.304;2022-10-17T02:10:20;13.83;;;8.80;;
19251;SDS011;9760;50.944;5.304;2022-10-17T02:13:18;14.37;;;8.67;;
19251;SDS011;9760;50.944;5.304;2022-10-17T02:23:58;14.63;;;8.63;;
19251;SDS011;9760;50.944;5.304;2022-10-17T02:26:52;18.40;;;8.60;;
19251;SDS011;9760;50.944;5.304;2022-10-17T02:29:29;18.27;;;8.17;;
19251;SDS011;9760;50.944;5.304;2022-10-17T02:32:09;13.90;;;8.23;;
19251;SDS011;9760;50.944;5.304;2022-10-17T02:34:49;12.77;;;7.80;;
19251;SDS011;9760;50.944;5.304;2022-10-17T02:37:20;11.33;;;7.20;;
19251;SDS011;9760;50.944;5.304;2022-10-17T02:39:48;17.70;;;7.07;;
19251;SDS011;9760;50.944;5.304;2022-10-17T02:42:15;12.90;;;7.07;;
19251;SDS011;9760;50.944;5.304;2022-10-17T02:44:43;13.57;;;7.40;;
19251;SDS011;9760;50.944;5.304;2022-10-17T02:47:24;17.50;;;7.70;;
19251;SDS011;9760;50.944;5.304;2022-10-17T02:49:54;13.73;;;7.03;;
19251;SDS011;9760;50.944;5.304;2022-10-17T02:52:36;14.03;;;7.23;;
19251;SDS011;9760;50.944;5.304;2022-10-17T02:57:55;10.57;;;6.40;;
19251;SDS011;9760;50.944;5.304;2022-10-17T03:00:27;11.17;;;7.10;;
19251;SDS011;9760;50.944;5.304;2022-10-17T03:02:55;10.80;;;6.50;;
19251;SDS011;9760;50.944;5.304;2022-10-17T03:05:27;11.27;;;5.83;;
19251;SDS011;9760;50.944;5.304;2022-10-17T03:07:54;11.10;;;5.83;;
19251;SDS011;9760;50.944;5.304;2022-10-17T03:10:20;11.57;;;5.90;;
19251;SDS011;9760;50.944;5.304;2022-10-17T03:12:46;15.40;;;5.90;;
19251;SDS011;9760;50.944;5.304;2022-10-17T03:15:12;13.67;;;5.83;;
19251;SDS011;9760;50.944;5.304;2022-10-17T03:17:38;10.23;;;5.97;;
19251;SDS011;9760;50.944;5.304;2022-10-17T03:20:04;8.77;;;6.03;;
19251;SDS011;9760;50.944;5.304;2022-10-17T03:22:30;11.37;;;5.93;;
19251;SDS011;9760;50.944;5.304;2022-10-17T03:24:56;11.93;;;5.47;;
19251;SDS011;9760;50.944;5.304;2022-10-17T03:27:22;9.43;;;5.77;;
19251;SDS011;9760;50.944;5.304;2022-10-17T03:29:48;10.07;;;5.70;;
19251;SDS011;9760;50.944;5.304;2022-10-17T03:32:14;17.10;;;6.73;;
19251;SDS011;9760;50.944;5.304;2022-10-17T03:34:39;14.53;;;6.20;;
19251;SDS011;9760;50.944;5.304;2022-10-17T03:37:05;7.93;;;5.63;;
19251;SDS011;9760;50.944;5.304;2022-10-17T03:39:31;11.27;;;6.17;;
19251;SDS011;9760;50.944;5.304;2022-10-17T03:41:56;10.53;;;5.63;;
19251;SDS011;9760;50.944;5.304;2022-10-17T03:44:22;11.90;;;5.63;;
19251;SDS011;9760;50.944;5.304;2022-10-17T03:46:47;15.37;;;6.17;;
19251;SDS011;9760;50.944;5.304;2022-10-17T03:49:13;11.53;;;6.17;;
19251;SDS011;9760;50.944;5.304;2022-10-17T03:51:38;10.30;;;5.77;;
19251;SDS011;9760;50.944;5.304;2022-10-17T03:54:04;8.77;;;5.83;;
19251;SDS011;9760;50.944;5.304;2022-10-17T03:56:30;11.63;;;6.03;;
19251;SDS011;9760;50.944;5.304;2022-10-17T03:58:55;11.70;;;6.00;;
19251;SDS011;9760;50.944;5.304;2022-10-17T04:01:21;10.73;;;5.70;;
19251;SDS011;9760;50.944;5.304;2022-10-17T04:03:48;13.63;;;5.83;;
19251;SDS011;9760;50.944;5.304;2022-10-17T04:06:15;9.53;;;5.83;;
19251;SDS011;9760;50.944;5.304;2022-10-17T04:08:41;9.87;;;5.70;;
19251;SDS011;9760;50.944;5.304;2022-10-17T04:11:07;12.87;;;6.07;;
19251;SDS011;9760;50.944;5.304;2022-10-17T04:13:34;18.70;;;6.60;;
19251;SDS011;9760;50.944;5.304;2022-10-17T04:16:01;9.63;;;5.87;;
19251;SDS011;9760;50.944;5.304;2022-10-17T04:18:28;12.50;;;6.00;;
19251;SDS011;9760;50.944;5.304;2022-10-17T04:20:54;13.67;;;6.37;;
19251;SDS011;9760;50.944;5.304;2022-10-17T04:23:20;10.83;;;6.30;;
19251;SDS011;9760;50.944;5.304;2022-10-17T04:25:46;15.10;;;6.20;;
19251;SDS011;9760;50.944;5.304;2022-10-17T04:28:12;12.40;;;5.60;;
19251;SDS011;9760;50.944;5.304;2022-10-17T04:30:37;9.40;;;5.20;;
19251;SDS011;9760;50.944;5.304;2022-10-17T04:33:04;13.50;;;5.13;;
19251;SDS011;9760;50.944;5.304;2022-10-17T04:35:29;12.20;;;5.50;;
19251;SDS011;9760;50.944;5.304;2022-10-17T04:37:55;14.67;;;5.93;;
19251;SDS011;9760;50.944;5.304;2022-10-17T04:40:21;13.43;;;5.30;;
19251;SDS011;9760;50.944;5.304;2022-10-17T04:42:46;14.77;;;5.83;;
19251;SDS011;9760;50.944;5.304;2022-10-17T04:45:12;10.10;;;5.90;;
19251;SDS011;9760;50.944;5.304;2022-10-17T04:47:38;12.90;;;5.60;;
19251;SDS011;9760;50.944;5.304;2022-10-17T04:50:04;19.07;;;5.83;;
19251;SDS011;9760;50.944;5.304;2022-10-17T04:52:30;21.57;;;6.93;;
19251;SDS011;9760;50.944;5.304;2022-10-17T04:54:56;11.93;;;5.33;;
19251;SDS011;9760;50.944;5.304;2022-10-17T04:57:21;12.50;;;5.40;;
19251;SDS011;9760;50.944;5.304;2022-10-17T04:59:47;12.27;;;5.13;;
19251;SDS011;9760;50.944;5.304;2022-10-17T05:02:13;11.00;;;5.90;;
19251;SDS011;9760;50.944;5.304;2022-10-17T05:04:39;12.93;;;5.20;;
19251;SDS011;9760;50.944;5.304;2022-10-17T05:07:04;10.60;;;5.20;;
19251;SDS011;9760;50.944;5.304;2022-10-17T05:09:30;11.70;;;5.40;;
19251;SDS011;9760;50.944;5.304;2022-10-17T05:11:56;11.40;;;5.10;;
19251;SDS011;9760;50.944;5.304;2022-10-17T05:14:21;8.17;;;5.17;;
19251;SDS011;9760;50.944;5.304;2022-10-17T05:16:47;9.77;;;4.87;;
19251;SDS011;9760;50.944;5.304;2022-10-17T05:19:13;14.90;;;5.03;;
19251;SDS011;9760;50.944;5.304;2022-10-17T05:21:39;8.30;;;4.60;;
19251;SDS011;9760;50.944;5.304;2022-10-17T05:24:07;7.80;;;4.70;;
19251;SDS011;9760;50.944;5.304;2022-10-17T05:26:35;6.37;;;4.37;;
19251;SDS011;9760;50.944;5.304;2022-10-17T05:29:01;8.57;;;4.43;;
19251;SDS011;9760;50.944;5.304;2022-10-17T05:31:28;7.77;;;4.87;;
19251;SDS011;9760;50.944;5.304;2022-10-17T05:33:54;10.53;;;4.37;;
19251;SDS011;9760;50.944;5.304;2022-10-17T05:36:20;11.10;;;4.80;;
19251;SDS011;9760;50.944;5.304;2022-10-17T05:38:49;7.70;;;4.60;;
19251;SDS011;9760;50.944;5.304;2022-10-17T05:41:15;13.23;;;4.23;;
19251;SDS011;9760;50.944;5.304;2022-10-17T05:43:41;7.47;;;4.13;;
19251;SDS011;9760;50.944;5.304;2022-10-17T05:46:07;15.47;;;4.97;;
19251;SDS011;9760;50.944;5.304;2022-10-17T05:48:33;14.90;;;4.87;;
19251;SDS011;9760;50.944;5.304;2022-10-17T05:51:03;9.07;;;4.47;;
19251;SDS011;9760;50.944;5.304;2022-10-17T05:53:32;14.07;;;4.53;;
19251;SDS011;9760;50.944;5.304;2022-10-17T05:55:59;10.00;;;4.20;;
19251;SDS011;9760;50.944;5.304;2022-10-17T05:58:27;8.23;;;4.17;;
19251;SDS011;9760;50.944;5.304;2022-10-17T06:00:56;12.33;;;4.47;;
19251;SDS011;9760;50.944;5.304;2022-10-17T06:03:26;8.43;;;4.23;;
19251;SDS011;9760;50.944;5.304;2022-10-17T06:05:52;10.00;;;4.37;;
19251;SDS011;9760;50.944;5.304;2022-10-17T06:08:18;8.97;;;4.63;;
19251;SDS011;9760;50.944;5.304;2022-10-17T06:10:47;8.77;;;4.83;;
19251;SDS011;9760;50.944;5.304;2022-10-17T06:13:14;9.53;;;4.10;;
19251;SDS011;9760;50.944;5.304;2022-10-17T06:15:41;8.27;;;4.30;;
19251;SDS011;9760;50.944;5.304;2022-10-17T06:18:07;13.70;;;5.03;;
19251;SDS011;9760;50.944;5.304;2022-10-17T06:20:32;6.67;;;4.23;;
19251;SDS011;9760;50.944;5.304;2022-10-17T06:22:58;8.03;;;4.27;;
19251;SDS011;9760;50.944;5.304;2022-10-17T06:25:24;10.20;;;5.20;;
19251;SDS011;9760;50.944;5.304;2022-10-17T06:27:49;15.67;;;4.27;;
19251;SDS011;9760;50.944;5.304;2022-10-17T06:30:15;14.57;;;5.53;;
19251;SDS011;9760;50.944;5.304;2022-10-17T06:32:40;17.73;;;5.20;;
19251;SDS011;9760;50.944;5.304;2022-10-17T06:35:06;8.53;;;4.53;;
19251;SDS011;9760;50.944;5.304;2022-10-17T06:37:32;13.70;;;4.13;;
19251;SDS011;9760;50.944;5.304;2022-10-17T06:39:58;12.73;;;4.40;;
19251;SDS011;9760;50.944;5.304;2022-10-17T06:42:24;14.03;;;5.10;;
19251;SDS011;9760;50.944;5.304;2022-10-17T06:44:49;8.13;;;4.30;;
19251;SDS011;9760;50.944;5.304;2022-10-17T06:47:15;9.33;;;4.57;;
19251;SDS011;9760;50.944;5.304;2022-10-17T06:49:41;9.77;;;5.03;;
19251;SDS011;9760;50.944;5.304;2022-10-17T06:52:06;6.87;;;3.40;;
19251;SDS011;9760;50.944;5.304;2022-10-17T06:54:32;7.67;;;3.93;;
19251;SDS011;9760;50.944;5.304;2022-10-17T06:56:57;7.90;;;3.90;;
19251;SDS011;9760;50.944;5.304;2022-10-17T06:59:23;9.90;;;4.03;;
19251;SDS011;9760;50.944;5.304;2022-10-17T07:01:49;6.43;;;3.57;;
19251;SDS011;9760;50.944;5.304;2022-10-17T07:04:14;4.90;;;3.73;;
19251;SDS011;9760;50.944;5.304;2022-10-17T07:06:40;10.17;;;3.90;;
19251;SDS011;9760;50.944;5.304;2022-10-17T07:09:06;10.67;;;3.37;;
19251;SDS011;9760;50.944;5.304;2022-10-17T07:11:32;7.60;;;3.70;;
19251;SDS011;9760;50.944;5.304;2022-10-17T07:13:59;8.00;;;3.53;;
19251;SDS011;9760;50.944;5.304;2022-10-17T07:16:25;10.20;;;3.23;;
19251;SDS011;9760;50.944;5.304;2022-10-17T07:18:51;4.07;;;3.13;;
19251;SDS011;9760;50.944;5.304;2022-10-17T07:21:18;4.23;;;3.27;;
19251;SDS011;9760;50.944;5.304;2022-10-17T07:23:44;10.13;;;3.60;;
19251;SDS011;9760;50.944;5.304;2022-10-17T07:26:11;7.40;;;4.43;;
19251;SDS011;9760;50.944;5.304;2022-10-17T07:28:39;12.67;;;3.70;;
19251;SDS011;9760;50.944;5.304;2022-10-17T07:31:08;19.10;;;3.57;;
19251;SDS011;9760;50.944;5.304;2022-10-17T07:33:35;7.17;;;3.73;;
19251;SDS011;9760;50.944;5.304;2022-10-17T07:36:01;9.80;;;4.23;;
19251;SDS011;9760;50.944;5.304;2022-10-17T07:38:28;7.27;;;3.60;;
19251;SDS011;9760;50.944;5.304;2022-10-17T07:40:57;9.20;;;3.60;;
19251;SDS011;9760;50.944;5.304;2022-10-17T07:43:24;10.57;;;2.83;;
19251;SDS011;9760;50.944;5.304;2022-10-17T07:45:51;7.97;;;3.30;;
19251;SDS011;9760;50.944;5.304;2022-10-17T07:48:17;5.93;;;3.10;;
19251;SDS011;9760;50.944;5.304;2022-10-17T07:50:44;10.87;;;3.13;;
19251;SDS011;9760;50.944;5.304;2022-10-17T07:53:10;8.10;;;3.37;;
19251;SDS011;9760;50.944;5.304;2022-10-17T07:55:36;9.53;;;3.20;;
19251;SDS011;9760;50.944;5.304;2022-10-17T07:58:03;5.73;;;2.60;;
19251;SDS011;9760;50.944;5.304;2022-10-17T08:00:29;5.97;;;2.90;;
19251;SDS011;9760;50.944;5.304;2022-10-17T08:02:54;6.03;;;3.40;;
19251;SDS011;9760;50.944;5.304;2022-10-17T08:05:20;6.80;;;3.30;;
19251;SDS011;9760;50.944;5.304;2022-10-17T08:07:45;5.83;;;3.10;;
19251;SDS011;9760;50.944;5.304;2022-10-17T08:10:11;11.07;;;3.33;;
19251;SDS011;9760;50.944;5.304;2022-10-17T08:12:38;12.50;;;3.67;;
19251;SDS011;9760;50.944;5.304;2022-10-17T08:15:04;8.80;;;3.70;;
19251;SDS011;9760;50.944;5.304;2022-10-17T08:17:30;7.40;;;3.90;;
19251;SDS011;9760;50.944;5.304;2022-10-17T08:19:58;11.00;;;3.60;;
19251;SDS011;9760;50.944;5.304;2022-10-17T08:22:24;9.27;;;3.20;;
19251;SDS011;9760;50.944;5.304;2022-10-17T08:24:50;8.33;;;3.40;;
19251;SDS011;9760;50.944;5.304;2022-10-17T08:27:16;6.50;;;3.53;;
19251;SDS011;9760;50.944;5.304;2022-10-17T08:29:47;11.83;;;4.47;;
19251;SDS011;9760;50.944;5.304;2022-10-17T08:32:16;7.93;;;3.77;;
19251;SDS011;9760;50.944;5.304;2022-10-17T08:34:43;11.13;;;3.80;;
19251;SDS011;9760;50.944;5.304;2022-10-17T08:37:08;8.40;;;3.93;;
19251;SDS011;9760;50.944;5.304;2022-10-17T08:39:34;5.73;;;3.27;;
19251;SDS011;9760;50.944;5.304;2022-10-17T08:47:36;4.70;;;3.13;;
19251;SDS011;9760;50.944;5.304;2022-10-17T08:50:05;6.47;;;3.60;;
19251;SDS011;9760;50.944;5.304;2022-10-17T08:55:30;11.77;;;4.33;;
19251;SDS011;9760;50.944;5.304;2022-10-17T08:58:02;11.43;;;3.60;;
19251;SDS011;9760;50.944;5.304;2022-10-17T09:00:44;15.30;;;3.97;;
19251;SDS011;9760;50.944;5.304;2022-10-17T09:19:44;9.87;;;4.67;;
19251;SDS011;9760;50.944;5.304;2022-10-17T09:22:19;5.40;;;2.77;;
19251;SDS011;9760;50.944;5.304;2022-10-17T09:24:49;9.00;;;3.63;;
19251;SDS011;9760;50.944;5.304;2022-10-17T09:27:30;6.63;;;3.27;;
19251;SDS011;9760;50.944;5.304;2022-10-17T09:30:19;10.37;;;3.77;;
19251;SDS011;9760;50.944;5.304;2022-10-17T09:32:49;5.90;;;3.63;;
19251;SDS011;9760;50.944;5.304;2022-10-17T09:35:15;10.23;;;3.70;;
19251;SDS011;9760;50.944;5.304;2022-10-17T09:37:41;6.97;;;3.37;;
19251;SDS011;9760;50.944;5.304;2022-10-17T09:40:11;7.13;;;3.20;;
19251;SDS011;9760;50.944;5.304;2022-10-17T09:42:45;9.23;;;3.40;;
19251;SDS011;9760;50.944;5.304;2022-10-17T09:45:17;9.63;;;3.80;;
19251;SDS011;9760;50.944;5.304;2022-10-17T09:50:21;11.70;;;4.03;;
19251;SDS011;9760;50.944;5.304;2022-10-17T09:52:52;6.97;;;4.23;;
19251;SDS011;9760;50.944;5.304;2022-10-17T09:55:30;14.60;;;4.50;;
19251;SDS011;9760;50.944;5.304;2022-10-17T09:58:04;13.27;;;4.80;;
19251;SDS011;9760;50.944;5.304;2022-10-17T10:00:34;15.07;;;4.37;;
19251;SDS011;9760;50.944;5.304;2022-10-17T10:05:42;8.07;;;4.43;;
19251;SDS011;9760;50.944;5.304;2022-10-17T10:08:22;11.37;;;5.17;;
19251;SDS011;9760;50.944;5.304;2022-10-17T10:11:03;10.33;;;4.47;;
19251;SDS011;9760;50.944;5.304;2022-10-17T10:13:31;7.63;;;3.90;;
19251;SDS011;9760;50.944;5.304;2022-10-17T10:16:12;11.23;;;4.97;;
19251;SDS011;9760;50.944;5.304;2022-10-17T10:18:37;17.60;;;4.93;;
19251;SDS011;9760;50.944;5.304;2022-10-17T10:23:37;17.87;;;4.77;;
19251;SDS011;9760;50.944;5.304;2022-10-17T10:26:17;14.93;;;4.87;;
19251;SDS011;9760;50.944;5.304;2022-10-17T10:28:54;14.30;;;4.93;;
19251;SDS011;9760;50.944;5.304;2022-10-17T10:31:44;13.53;;;4.83;;
19251;SDS011;9760;50.944;5.304;2022-10-17T10:34:15;15.23;;;4.57;;
19251;SDS011;9760;50.944;5.304;2022-10-17T10:36:43;10.53;;;4.57;;
19251;SDS011;9760;50.944;5.304;2022-10-17T10:39:13;9.63;;;3.90;;
19251;SDS011;9760;50.944;5.304;2022-10-17T10:41:52;11.57;;;4.70;;
19251;SDS011;9760;50.944;5.304;2022-10-17T10:44:18;10.97;;;4.47;;
19251;SDS011;9760;50.944;5.304;2022-10-17T10:47:04;8.40;;;4.23;;
19251;SDS011;9760;50.944;5.304;2022-10-17T10:49:31;13.53;;;4.33;;
19251;SDS011;9760;50.944;5.304;2022-10-17T10:51:57;12.10;;;4.40;;
19251;SDS011;9760;50.944;5.304;2022-10-17T10:54:36;13.17;;;4.53;;
19251;SDS011;9760;50.944;5.304;2022-10-17T10:57:07;15.23;;;3.77;;
19251;SDS011;9760;50.944;5.304;2022-10-17T11:05:14;8.63;;;3.37;;
19251;SDS011;9760;50.944;5.304;2022-10-17T11:07:53;12.03;;;3.57;;
19251;SDS011;9760;50.944;5.304;2022-10-17T11:13:36;9.10;;;3.73;;
19251;SDS011;9760;50.944;5.304;2022-10-17T11:16:16;4.83;;;2.87;;
19251;SDS011;9760;50.944;5.304;2022-10-17T11:18:54;11.83;;;3.90;;
19251;SDS011;9760;50.944;5.304;2022-10-17T11:24:27;9.40;;;3.30;;
19251;SDS011;9760;50.944;5.304;2022-10-17T11:27:00;10.33;;;3.33;;
19251;SDS011;9760;50.944;5.304;2022-10-17T11:29:32;7.97;;;2.80;;
19251;SDS011;9760;50.944;5.304;2022-10-17T11:32:02;9.17;;;3.10;;
19251;SDS011;9760;50.944;5.304;2022-10-17T11:34:51;12.40;;;2.83;;
19251;SDS011;9760;50.944;5.304;2022-10-17T11:37:22;9.03;;;3.17;;
19251;SDS011;9760;50.944;5.304;2022-10-17T11:39:53;4.53;;;2.30;;
19251;SDS011;9760;50.944;5.304;2022-10-17T11:42:42;5.67;;;2.50;;
19251;SDS011;9760;50.944;5.304;2022-10-17T11:45:24;8.70;;;2.70;;
19251;SDS011;9760;50.944;5.304;2022-10-17T11:47:57;7.80;;;2.53;;
19251;SDS011;9760;50.944;5.304;2022-10-17T11:50:30;8.93;;;2.97;;
19251;SDS011;9760;50.944;5.304;2022-10-17T11:55:27;9.73;;;3.63;;
19251;SDS011;9760;50.944;5.304;2022-10-17T12:11:59;10.57;;;3.40;;
19251;SDS011;9760;50.944;5.304;2022-10-17T12:16:57;12.60;;;3.00;;
19251;SDS011;9760;50.944;5.304;2022-10-17T12:19:25;8.93;;;2.90;;
19251;SDS011;9760;50.944;5.304;2022-10-17T12:22:02;9.00;;;3.13;;
19251;SDS011;9760;50.944;5.304;2022-10-17T12:24:59;8.13;;;3.17;;
19251;SDS011;9760;50.944;5.304;2022-10-17T12:30:17;11.23;;;3.13;;
19251;SDS011;9760;50.944;5.304;2022-10-17T12:35:21;14.20;;;4.47;;
19251;SDS011;9760;50.944;5.304;2022-10-17T12:42:59;9.30;;;4.20;;
19251;SDS011;9760;50.944;5.304;2022-10-17T12:51:12;9.67;;;4.90;;
19251;SDS011;9760;50.944;5.304;2022-10-17T12:59:07;15.77;;;4.77;;
19251;SDS011;9760;50.944;5.304;2022-10-17T13:01:49;11.97;;;5.70;;
19251;SDS011;9760;50.944;5.304;2022-10-17T13:04:17;11.23;;;5.37;;
19251;SDS011;9760;50.944;5.304;2022-10-17T13:06:45;12.37;;;5.17;;
19251;SDS011;9760;50.944;5.304;2022-10-17T13:09:34;10.50;;;5.57;;
19251;SDS011;9760;50.944;5.304;2022-10-17T13:12:02;11.07;;;6.00;;
19251;SDS011;9760;50.944;5.304;2022-10-17T13:14:29;13.67;;;5.63;;
19251;SDS011;9760;50.944;5.304;2022-10-17T13:17:01;16.20;;;6.13;;
19251;SDS011;9760;50.944;5.304;2022-10-17T13:19:30;13.37;;;6.13;;
19251;SDS011;9760;50.944;5.304;2022-10-17T13:22:17;15.77;;;6.00;;
19251;SDS011;9760;50.944;5.304;2022-10-17T13:24:47;10.47;;;5.83;;
19251;SDS011;9760;50.944;5.304;2022-10-17T13:27:21;14.87;;;6.30;;
19251;SDS011;9760;50.944;5.304;2022-10-17T13:29:55;15.77;;;6.73;;
19251;SDS011;9760;50.944;5.304;2022-10-17T13:32:23;15.47;;;7.63;;
19251;SDS011;9760;50.944;5.304;2022-10-17T13:37:35;17.53;;;7.07;;
19251;SDS011;9760;50.944;5.304;2022-10-17T13:40:02;33.97;;;8.27;;
19251;SDS011;9760;50.944;5.304;2022-10-17T13:42:29;19.50;;;7.63;;
19251;SDS011;9760;50.944;5.304;2022-10-17T13:45:02;26.60;;;7.70;;
19251;SDS011;9760;50.944;5.304;2022-10-17T13:47:29;16.17;;;7.63;;
19251;SDS011;9760;50.944;5.304;2022-10-17T13:50:00;19.13;;;8.23;;
19251;SDS011;9760;50.944;5.304;2022-10-17T13:52:27;16.37;;;7.77;;
19251;SDS011;9760;50.944;5.304;2022-10-17T13:54:54;15.77;;;8.83;;
19251;SDS011;9760;50.944;5.304;2022-10-17T13:57:30;17.07;;;8.27;;
19251;SDS011;9760;50.944;5.304;2022-10-17T13:59:56;16.03;;;8.33;;
19251;SDS011;9760;50.944;5.304;2022-10-17T14:02:25;30.73;;;9.30;;
19251;SDS011;9760;50.944;5.304;2022-10-17T14:12:58;23.63;;;9.20;;
19251;SDS011;9760;50.944;5.304;2022-10-17T14:15:26;16.27;;;8.93;;
19251;SDS011;9760;50.944;5.304;2022-10-17T14:17:57;15.83;;;8.67;;
19251;SDS011;9760;50.944;5.304;2022-10-17T14:20:29;15.83;;;8.50;;
19251;SDS011;9760;50.944;5.304;2022-10-17T14:22:55;19.37;;;9.03;;
19251;SDS011;9760;50.944;5.304;2022-10-17T14:25:32;19.07;;;8.47;;
19251;SDS011;9760;50.944;5.304;2022-10-17T14:30:34;20.77;;;8.70;;
19251;SDS011;9760;50.944;5.304;2022-10-17T14:33:04;19.60;;;9.07;;
19251;SDS011;9760;50.944;5.304;2022-10-17T14:35:31;18.67;;;9.40;;
19251;SDS011;9760;50.944;5.304;2022-10-17T14:37:59;19.10;;;9.40;;
19251;SDS011;9760;50.944;5.304;2022-10-17T14:40:27;20.23;;;8.07;;
19251;SDS011;9760;50.944;5.304;2022-10-17T14:42:56;22.50;;;9.97;;
19251;SDS011;9760;50.944;5.304;2022-10-17T14:47:52;22.20;;;10.00;;
19251;SDS011;9760;50.944;5.304;2022-10-17T14:50:28;19.30;;;9.80;;
19251;SDS011;9760;50.944;5.304;2022-10-17T14:53:03;18.50;;;9.13;;
19251;SDS011;9760;50.944;5.304;2022-10-17T14:55:36;16.10;;;9.50;;
19251;SDS011;9760;50.944;5.304;2022-10-17T14:58:15;21.87;;;10.13;;
19251;SDS011;9760;50.944;5.304;2022-10-17T15:00:55;16.60;;;8.83;;
19251;SDS011;9760;50.944;5.304;2022-10-17T15:03:21;21.03;;;9.83;;
19251;SDS011;9760;50.944;5.304;2022-10-17T15:05:47;14.73;;;9.00;;
19251;SDS011;9760;50.944;5.304;2022-10-17T15:08:14;14.87;;;9.07;;
19251;SDS011;9760;50.944;5.304;2022-10-17T15:10:41;19.57;;;9.70;;
19251;SDS011;9760;50.944;5.304;2022-10-17T15:13:09;22.23;;;9.57;;
19251;SDS011;9760;50.944;5.304;2022-10-17T15:15:36;18.83;;;9.63;;
19251;SDS011;9760;50.944;5.304;2022-10-17T15:18:03;21.30;;;9.63;;
19251;SDS011;9760;50.944;5.304;2022-10-17T15:20:29;18.03;;;9.63;;
19251;SDS011;9760;50.944;5.304;2022-10-17T15:22:55;21.90;;;10.00;;
19251;SDS011;9760;50.944;5.304;2022-10-17T15:25:22;19.27;;;9.80;;
19251;SDS011;9760;50.944;5.304;2022-10-17T15:27:49;24.37;;;9.60;;
19251;SDS011;9760;50.944;5.304;2022-10-17T15:30:20;19.80;;;9.97;;
19251;SDS011;9760;50.944;5.304;2022-10-17T15:32:54;22.23;;;9.30;;
19251;SDS011;9760;50.944;5.304;2022-10-17T15:35:20;16.37;;;9.40;;
19251;SDS011;9760;50.944;5.304;2022-10-17T15:37:46;17.17;;;9.03;;
19251;SDS011;9760;50.944;5.304;2022-10-17T15:40:17;18.17;;;9.40;;
19251;SDS011;9760;50.944;5.304;2022-10-17T15:42:44;19.43;;;8.77;;
19251;SDS011;9760;50.944;5.304;2022-10-17T15:45:10;18.50;;;8.70;;
19251;SDS011;9760;50.944;5.304;2022-10-17T15:47:39;15.60;;;8.73;;
19251;SDS011;9760;50.944;5.304;2022-10-17T15:50:05;16.50;;;8.67;;
19251;SDS011;9760;50.944;5.304;2022-10-17T15:52:33;15.73;;;8.90;;
19251;SDS011;9760;50.944;5.304;2022-10-17T15:54:59;22.47;;;8.40;;
19251;SDS011;9760;50.944;5.304;2022-10-17T15:57:27;15.17;;;8.03;;
19251;SDS011;9760;50.944;5.304;2022-10-17T15:59:54;21.50;;;8.70;;
19251;SDS011;9760;50.944;5.304;2022-10-17T16:02:23;16.37;;;8.10;;
19251;SDS011;9760;50.944;5.304;2022-10-17T16:04:49;15.87;;;7.90;;
19251;SDS011;9760;50.944;5.304;2022-10-17T16:07:15;17.90;;;8.10;;
19251;SDS011;9760;50.944;5.304;2022-10-17T16:09:42;15.20;;;7.03;;
19251;SDS011;9760;50.944;5.304;2022-10-17T16:12:12;15.97;;;7.50;;
19251;SDS011;9760;50.944;5.304;2022-10-17T16:14:44;14.77;;;7.57;;
19251;SDS011;9760;50.944;5.304;2022-10-17T16:17:13;16.93;;;7.10;;
19251;SDS011;9760;50.944;5.304;2022-10-17T16:19:40;16.70;;;7.27;;
19251;SDS011;9760;50.944;5.304;2022-10-17T16:22:08;16.70;;;7.97;;
19251;SDS011;9760;50.944;5.304;2022-10-17T16:24:42;17.37;;;8.03;;
19251;SDS011;9760;50.944;5.304;2022-10-17T16:27:08;13.30;;;7.57;;
19251;SDS011;9760;50.944;5.304;2022-10-17T16:29:34;16.33;;;7.40;;
19251;SDS011;9760;50.944;5.304;2022-10-17T16:31:59;11.40;;;6.80;;
19251;SDS011;9760;50.944;5.304;2022-10-17T16:34:25;24.97;;;9.80;;
19251;SDS011;9760;50.944;5.304;2022-10-17T16:36:50;10.40;;;6.53;;
19251;SDS011;9760;50.944;5.304;2022-10-17T16:39:16;11.93;;;6.37;;
19251;SDS011;9760;50.944;5.304;2022-10-17T16:41:42;11.70;;;5.93;;
19251;SDS011;9760;50.944;5.304;2022-10-17T16:44:09;10.20;;;5.60;;
19251;SDS011;9760;50.944;5.304;2022-10-17T16:46:38;12.63;;;5.60;;
19251;SDS011;9760;50.944;5.304;2022-10-17T16:49:04;13.63;;;5.33;;
19251;SDS011;9760;50.944;5.304;2022-10-17T16:51:30;8.53;;;4.87;;
19251;SDS011;9760;50.944;5.304;2022-10-17T16:53:57;11.30;;;5.10;;
19251;SDS011;9760;50.944;5.304;2022-10-17T16:56:24;14.00;;;4.47;;
19251;SDS011;9760;50.944;5.304;2022-10-17T16:58:53;10.63;;;5.20;;
19251;SDS011;9760;50.944;5.304;2022-10-17T17:01:20;9.40;;;4.50;;
19251;SDS011;9760;50.944;5.304;2022-10-17T17:03:48;7.50;;;4.43;;
19251;SDS011;9760;50.944;5.304;2022-10-17T17:06:16;7.47;;;4.30;;
19251;SDS011;9760;50.944;5.304;2022-10-17T17:08:44;9.53;;;4.13;;
19251;SDS011;9760;50.944;5.304;2022-10-17T17:11:11;6.90;;;3.53;;
19251;SDS011;9760;50.944;5.304;2022-10-17T17:13:37;6.23;;;3.57;;
19251;SDS011;9760;50.944;5.304;2022-10-17T17:16:05;12.97;;;3.97;;
19251;SDS011;9760;50.944;5.304;2022-10-17T17:18:35;8.17;;;4.43;;